sensor_id;sensor_type;location;lat;lon;timestamp;P1;durP1;ratioP1;P2;durP2;ratioP2
40931;SDS011;36257;46.052;12.540;2023-03-16T00:00:49;5.10;;;4.70;;
40931;SDS011;36257;46.052;12.540;2023-03-16T00:03:15;4.97;;;4.30;;
40931;SDS011;36257;46.052;12.540;2023-03-16T00:05:52;4.30;;;4.00;;
40931;SDS011;36257;46.052;12.540;2023-03-16T00:08:18;4.93;;;4.40;;
40931;SDS011;36257;46.052;12.540;2023-03-16T00:10:45;4.80;;;4.50;;
40931;SDS011;36257;46.052;12.540;2023-03-16T00:13:15;5.50;;;5.17;;
40931;SDS011;36257;46.052;12.540;2023-03-16T00:15:48;4.83;;;4.53;;
40931;SDS011;36257;46.052;12.540;2023-03-16T00:18:17;4.40;;;4.20;;
40931;SDS011;36257;46.052;12.540;2023-03-16T00:20:43;4.20;;;3.90;;
40931;SDS011;36257;46.052;12.540;2023-03-16T00:23:09;4.90;;;4.60;;
40931;SDS011;36257;46.052;12.540;2023-03-16T00:25:34;4.53;;;4.23;;
40931;SDS011;36257;46.052;12.540;2023-03-16T00:28:00;4.67;;;4.40;;
40931;SDS011;36257;46.052;12.540;2023-03-16T00:30:29;5.07;;;4.70;;
40931;SDS011;36257;46.052;12.540;2023-03-16T00:32:56;3.80;;;3.60;;
40931;SDS011;36257;46.052;12.540;2023-03-16T00:35:23;5.57;;;5.27;;
40931;SDS011;36257;46.052;12.540;2023-03-16T00:37:49;4.83;;;4.53;;
40931;SDS011;36257;46.052;12.540;2023-03-16T00:40:15;4.40;;;4.10;;
40931;SDS011;36257;46.052;12.540;2023-03-16T00:42:41;4.30;;;4.00;;
40931;SDS011;36257;46.052;12.540;2023-03-16T00:45:07;4.33;;;4.13;;
40931;SDS011;36257;46.052;12.540;2023-03-16T00:47:33;4.63;;;4.43;;
40931;SDS011;36257;46.052;12.540;2023-03-16T00:50:00;4.60;;;4.40;;
40931;SDS011;36257;46.052;12.540;2023-03-16T00:52:26;4.67;;;4.37;;
40931;SDS011;36257;46.052;12.540;2023-03-16T00:54:53;4.43;;;4.23;;
40931;SDS011;36257;46.052;12.540;2023-03-16T00:57:20;4.38;;;4.18;;
40931;SDS011;36257;46.052;12.540;2023-03-16T00:59:47;4.75;;;4.45;;
40931;SDS011;36257;46.052;12.540;2023-03-16T01:02:14;4.67;;;4.37;;
40931;SDS011;36257;46.052;12.540;2023-03-16T01:04:41;4.03;;;3.83;;
40931;SDS011;36257;46.052;12.540;2023-03-16T01:07:08;5.30;;;5.00;;
40931;SDS011;36257;46.052;12.540;2023-03-16T01:09:39;5.03;;;4.73;;
40931;SDS011;36257;46.052;12.540;2023-03-16T01:12:07;4.40;;;4.10;;
40931;SDS011;36257;46.052;12.540;2023-03-16T01:14:36;4.50;;;4.20;;
40931;SDS011;36257;46.052;12.540;2023-03-16T01:17:02;4.43;;;4.23;;
40931;SDS011;36257;46.052;12.540;2023-03-16T01:19:30;4.43;;;4.23;;
40931;SDS011;36257;46.052;12.540;2023-03-16T01:21:59;4.57;;;4.27;;
40931;SDS011;36257;46.052;12.540;2023-03-16T01:24:29;4.10;;;3.90;;
40931;SDS011;36257;46.052;12.540;2023-03-16T01:26:55;4.00;;;3.70;;
40931;SDS011;36257;46.052;12.540;2023-03-16T01:29:21;4.33;;;4.00;;
40931;SDS011;36257;46.052;12.540;2023-03-16T01:31:46;4.13;;;3.93;;
40931;SDS011;36257;46.052;12.540;2023-03-16T01:34:14;4.70;;;4.40;;
40931;SDS011;36257;46.052;12.540;2023-03-16T01:36:42;4.53;;;4.33;;
40931;SDS011;36257;46.052;12.540;2023-03-16T01:39:11;3.63;;;3.37;;
40931;SDS011;36257;46.052;12.540;2023-03-16T01:41:38;4.57;;;4.37;;
40931;SDS011;36257;46.052;12.540;2023-03-16T01:44:06;4.20;;;3.97;;
40931;SDS011;36257;46.052;12.540;2023-03-16T01:46:36;4.40;;;4.20;;
40931;SDS011;36257;46.052;12.540;2023-03-16T01:51:51;4.10;;;3.90;;
40931;SDS011;36257;46.052;12.540;2023-03-16T01:57:09;3.90;;;3.70;;
40931;SDS011;36257;46.052;12.540;2023-03-16T02:02:12;4.10;;;3.90;;
40931;SDS011;36257;46.052;12.540;2023-03-16T02:07:31;4.00;;;3.80;;
40931;SDS011;36257;46.052;12.540;2023-03-16T02:09:59;3.77;;;3.57;;
40931;SDS011;36257;46.052;12.540;2023-03-16T02:12:26;4.10;;;4.00;;
40931;SDS011;36257;46.052;12.540;2023-03-16T02:14:53;4.25;;;4.05;;
40931;SDS011;36257;46.052;12.540;2023-03-16T02:17:20;4.07;;;3.90;;
40931;SDS011;36257;46.052;12.540;2023-03-16T02:22:38;4.05;;;3.85;;
40931;SDS011;36257;46.052;12.540;2023-03-16T02:25:08;4.70;;;4.50;;
40931;SDS011;36257;46.052;12.540;2023-03-16T02:30:15;4.23;;;4.03;;
40931;SDS011;36257;46.052;12.540;2023-03-16T02:32:43;4.33;;;4.13;;
40931;SDS011;36257;46.052;12.540;2023-03-16T02:35:12;4.27;;;4.07;;
40931;SDS011;36257;46.052;12.540;2023-03-16T02:37:38;4.13;;;3.83;;
40931;SDS011;36257;46.052;12.540;2023-03-16T02:43:01;4.33;;;4.13;;
40931;SDS011;36257;46.052;12.540;2023-03-16T02:45:37;4.37;;;4.17;;
40931;SDS011;36257;46.052;12.540;2023-03-16T02:48:14;4.40;;;4.20;;
40931;SDS011;36257;46.052;12.540;2023-03-16T02:50:46;4.03;;;3.83;;
40931;SDS011;36257;46.052;12.540;2023-03-16T02:53:14;4.30;;;4.10;;
40931;SDS011;36257;46.052;12.540;2023-03-16T02:55:40;5.82;;;4.22;;
40931;SDS011;36257;46.052;12.540;2023-03-16T02:58:06;4.63;;;4.43;;
40931;SDS011;36257;46.052;12.540;2023-03-16T03:00:32;4.53;;;4.30;;
40931;SDS011;36257;46.052;12.540;2023-03-16T03:02:57;4.40;;;4.13;;
40931;SDS011;36257;46.052;12.540;2023-03-16T03:05:23;4.23;;;4.03;;
40931;SDS011;36257;46.052;12.540;2023-03-16T03:07:49;4.70;;;4.40;;
40931;SDS011;36257;46.052;12.540;2023-03-16T03:10:15;4.43;;;4.13;;
40931;SDS011;36257;46.052;12.540;2023-03-16T03:12:41;4.43;;;4.20;;
40931;SDS011;36257;46.052;12.540;2023-03-16T03:15:07;5.13;;;4.73;;
40931;SDS011;36257;46.052;12.540;2023-03-16T03:17:33;4.80;;;4.50;;
40931;SDS011;36257;46.052;12.540;2023-03-16T03:19:59;4.13;;;3.83;;
40931;SDS011;36257;46.052;12.540;2023-03-16T03:22:38;4.20;;;4.00;;
40931;SDS011;36257;46.052;12.540;2023-03-16T03:25:04;4.20;;;4.00;;
40931;SDS011;36257;46.052;12.540;2023-03-16T03:27:30;4.17;;;3.97;;
40931;SDS011;36257;46.052;12.540;2023-03-16T03:29:57;4.57;;;4.38;;
40931;SDS011;36257;46.052;12.540;2023-03-16T03:32:22;4.37;;;4.07;;
40931;SDS011;36257;46.052;12.540;2023-03-16T03:34:48;3.77;;;3.67;;
40931;SDS011;36257;46.052;12.540;2023-03-16T03:37:14;4.50;;;4.30;;
40931;SDS011;36257;46.052;12.540;2023-03-16T03:39:39;4.80;;;4.50;;
40931;SDS011;36257;46.052;12.540;2023-03-16T03:42:05;4.03;;;3.83;;
40931;SDS011;36257;46.052;12.540;2023-03-16T03:44:31;3.97;;;3.77;;
40931;SDS011;36257;46.052;12.540;2023-03-16T03:46:58;5.15;;;4.95;;
40931;SDS011;36257;46.052;12.540;2023-03-16T03:49:24;4.40;;;4.20;;
40931;SDS011;36257;46.052;12.540;2023-03-16T03:51:50;4.50;;;4.27;;
40931;SDS011;36257;46.052;12.540;2023-03-16T03:54:15;4.23;;;4.03;;
40931;SDS011;36257;46.052;12.540;2023-03-16T03:56:41;3.97;;;3.77;;
40931;SDS011;36257;46.052;12.540;2023-03-16T03:59:07;4.47;;;4.17;;
40931;SDS011;36257;46.052;12.540;2023-03-16T04:01:33;4.97;;;4.67;;
40931;SDS011;36257;46.052;12.540;2023-03-16T04:03:58;4.70;;;4.40;;
40931;SDS011;36257;46.052;12.540;2023-03-16T04:06:24;5.00;;;4.60;;
40931;SDS011;36257;46.052;12.540;2023-03-16T04:08:50;4.43;;;4.23;;
40931;SDS011;36257;46.052;12.540;2023-03-16T04:11:18;4.53;;;4.30;;
40931;SDS011;36257;46.052;12.540;2023-03-16T04:13:44;4.20;;;4.00;;
40931;SDS011;36257;46.052;12.540;2023-03-16T04:16:10;4.37;;;4.17;;
40931;SDS011;36257;46.052;12.540;2023-03-16T04:18:40;4.30;;;4.00;;
40931;SDS011;36257;46.052;12.540;2023-03-16T04:21:07;3.97;;;3.77;;
40931;SDS011;36257;46.052;12.540;2023-03-16T04:23:39;4.70;;;4.40;;
40931;SDS011;36257;46.052;12.540;2023-03-16T04:26:06;3.83;;;3.63;;
40931;SDS011;36257;46.052;12.540;2023-03-16T04:28:32;4.97;;;4.57;;
40931;SDS011;36257;46.052;12.540;2023-03-16T04:31:01;4.40;;;4.10;;
40931;SDS011;36257;46.052;12.540;2023-03-16T04:33:31;4.43;;;4.20;;
40931;SDS011;36257;46.052;12.540;2023-03-16T04:35:58;4.28;;;4.07;;
40931;SDS011;36257;46.052;12.540;2023-03-16T04:38:24;4.67;;;4.30;;
40931;SDS011;36257;46.052;12.540;2023-03-16T04:40:50;4.83;;;4.63;;
40931;SDS011;36257;46.052;12.540;2023-03-16T04:43:16;4.30;;;4.03;;
40931;SDS011;36257;46.052;12.540;2023-03-16T04:45:41;4.20;;;4.00;;
40931;SDS011;36257;46.052;12.540;2023-03-16T04:48:07;4.20;;;4.00;;
40931;SDS011;36257;46.052;12.540;2023-03-16T04:50:34;4.37;;;4.10;;
40931;SDS011;36257;46.052;12.540;2023-03-16T04:53:00;4.60;;;4.30;;
40931;SDS011;36257;46.052;12.540;2023-03-16T04:55:25;5.23;;;4.93;;
40931;SDS011;36257;46.052;12.540;2023-03-16T04:57:51;4.90;;;4.70;;
40931;SDS011;36257;46.052;12.540;2023-03-16T05:00:17;4.50;;;4.30;;
40931;SDS011;36257;46.052;12.540;2023-03-16T05:02:43;3.70;;;3.50;;
40931;SDS011;36257;46.052;12.540;2023-03-16T05:05:09;5.20;;;4.90;;
40931;SDS011;36257;46.052;12.540;2023-03-16T05:07:35;5.20;;;4.80;;
40931;SDS011;36257;46.052;12.540;2023-03-16T05:10:01;4.80;;;4.50;;
40931;SDS011;36257;46.052;12.540;2023-03-16T05:12:27;4.23;;;3.93;;
40931;SDS011;36257;46.052;12.540;2023-03-16T05:14:53;4.60;;;4.40;;
40931;SDS011;36257;46.052;12.540;2023-03-16T05:17:18;5.53;;;5.13;;
40931;SDS011;36257;46.052;12.540;2023-03-16T05:19:44;4.90;;;4.67;;
40931;SDS011;36257;46.052;12.540;2023-03-16T05:22:10;4.80;;;4.50;;
40931;SDS011;36257;46.052;12.540;2023-03-16T05:24:36;5.27;;;4.87;;
40931;SDS011;36257;46.052;12.540;2023-03-16T05:27:01;4.97;;;4.67;;
40931;SDS011;36257;46.052;12.540;2023-03-16T05:29:27;4.63;;;4.33;;
40931;SDS011;36257;46.052;12.540;2023-03-16T05:34:21;4.70;;;4.40;;
40931;SDS011;36257;46.052;12.540;2023-03-16T05:36:46;5.20;;;4.87;;
40931;SDS011;36257;46.052;12.540;2023-03-16T05:39:12;5.03;;;4.63;;
40931;SDS011;36257;46.052;12.540;2023-03-16T05:41:38;7.70;;;7.20;;
40931;SDS011;36257;46.052;12.540;2023-03-16T05:44:04;6.77;;;6.27;;
40931;SDS011;36257;46.052;12.540;2023-03-16T05:46:30;8.27;;;7.77;;
40931;SDS011;36257;46.052;12.540;2023-03-16T05:48:55;6.77;;;6.27;;
40931;SDS011;36257;46.052;12.540;2023-03-16T05:51:21;7.77;;;7.17;;
40931;SDS011;36257;46.052;12.540;2023-03-16T05:53:50;7.90;;;7.27;;
40931;SDS011;36257;46.052;12.540;2023-03-16T05:56:16;7.90;;;7.30;;
40931;SDS011;36257;46.052;12.540;2023-03-16T05:58:42;10.40;;;9.50;;
40931;SDS011;36257;46.052;12.540;2023-03-16T06:01:08;7.80;;;7.00;;
40931;SDS011;36257;46.052;12.540;2023-03-16T06:03:35;10.35;;;9.35;;
40931;SDS011;36257;46.052;12.540;2023-03-16T06:06:00;7.17;;;6.57;;
40931;SDS011;36257;46.052;12.540;2023-03-16T06:08:26;11.97;;;6.07;;
40931;SDS011;36257;46.052;12.540;2023-03-16T06:10:52;8.93;;;8.13;;
40931;SDS011;36257;46.052;12.540;2023-03-16T06:13:17;9.53;;;8.43;;
40931;SDS011;36257;46.052;12.540;2023-03-16T06:15:43;11.77;;;8.53;;
40931;SDS011;36257;46.052;12.540;2023-03-16T06:18:09;8.57;;;7.47;;
40931;SDS011;36257;46.052;12.540;2023-03-16T06:20:35;7.57;;;6.97;;
40931;SDS011;36257;46.052;12.540;2023-03-16T06:23:01;5.37;;;5.03;;
40931;SDS011;36257;46.052;12.540;2023-03-16T06:25:26;5.17;;;4.73;;
40931;SDS011;36257;46.052;12.540;2023-03-16T06:27:52;5.87;;;5.33;;
40931;SDS011;36257;46.052;12.540;2023-03-16T06:30:18;4.40;;;4.20;;
40931;SDS011;36257;46.052;12.540;2023-03-16T06:32:43;4.80;;;4.60;;
40931;SDS011;36257;46.052;12.540;2023-03-16T06:35:09;4.53;;;4.23;;
40931;SDS011;36257;46.052;12.540;2023-03-16T06:37:36;4.57;;;4.23;;
40931;SDS011;36257;46.052;12.540;2023-03-16T06:40:02;5.97;;;4.57;;
40931;SDS011;36257;46.052;12.540;2023-03-16T06:42:28;5.10;;;4.70;;
40931;SDS011;36257;46.052;12.540;2023-03-16T06:44:54;4.47;;;4.17;;
40931;SDS011;36257;46.052;12.540;2023-03-16T06:47:20;4.53;;;4.23;;
40931;SDS011;36257;46.052;12.540;2023-03-16T06:49:46;4.07;;;3.80;;
40931;SDS011;36257;46.052;12.540;2023-03-16T06:52:13;4.17;;;3.87;;
40931;SDS011;36257;46.052;12.540;2023-03-16T06:54:39;4.37;;;4.07;;
40931;SDS011;36257;46.052;12.540;2023-03-16T06:57:05;3.70;;;3.43;;
40931;SDS011;36257;46.052;12.540;2023-03-16T06:59:31;3.38;;;2.90;;
40931;SDS011;36257;46.052;12.540;2023-03-16T07:01:56;4.55;;;3.35;;
40931;SDS011;36257;46.052;12.540;2023-03-16T07:04:22;3.70;;;3.13;;
40931;SDS011;36257;46.052;12.540;2023-03-16T07:06:48;3.70;;;3.40;;
40931;SDS011;36257;46.052;12.540;2023-03-16T07:09:13;3.40;;;3.10;;
40931;SDS011;36257;46.052;12.540;2023-03-16T07:11:39;4.70;;;2.30;;
40931;SDS011;36257;46.052;12.540;2023-03-16T07:14:05;2.67;;;2.47;;
40931;SDS011;36257;46.052;12.540;2023-03-16T07:16:30;4.45;;;3.25;;
40931;SDS011;36257;46.052;12.540;2023-03-16T07:18:56;2.78;;;2.53;;
40931;SDS011;36257;46.052;12.540;2023-03-16T07:21:22;3.10;;;2.45;;
40931;SDS011;36257;46.052;12.540;2023-03-16T07:23:48;2.15;;;2.05;;
40931;SDS011;36257;46.052;12.540;2023-03-16T07:26:14;4.95;;;2.20;;
40931;SDS011;36257;46.052;12.540;2023-03-16T07:28:40;2.70;;;2.30;;
40931;SDS011;36257;46.052;12.540;2023-03-16T07:31:06;2.60;;;2.22;;
40931;SDS011;36257;46.052;12.540;2023-03-16T07:33:33;2.25;;;2.05;;
40931;SDS011;36257;46.052;12.540;2023-03-16T07:35:59;5.25;;;2.33;;
40931;SDS011;36257;46.052;12.540;2023-03-16T07:38:29;3.35;;;3.03;;
40931;SDS011;36257;46.052;12.540;2023-03-16T07:40:56;3.08;;;2.75;;
40931;SDS011;36257;46.052;12.540;2023-03-16T07:43:24;2.50;;;2.30;;
40931;SDS011;36257;46.052;12.540;2023-03-16T07:45:50;1.85;;;1.75;;
40931;SDS011;36257;46.052;12.540;2023-03-16T07:48:16;4.80;;;2.28;;
40931;SDS011;36257;46.052;12.540;2023-03-16T07:50:43;3.90;;;2.22;;
40931;SDS011;36257;46.052;12.540;2023-03-16T07:53:10;10.00;;;2.70;;
40931;SDS011;36257;46.052;12.540;2023-03-16T07:55:39;7.15;;;2.53;;
40931;SDS011;36257;46.052;12.540;2023-03-16T07:58:05;2.30;;;1.95;;
40931;SDS011;36257;46.052;12.540;2023-03-16T08:00:32;2.38;;;2.17;;
40931;SDS011;36257;46.052;12.540;2023-03-16T08:02:58;2.15;;;1.80;;
40931;SDS011;36257;46.052;12.540;2023-03-16T08:05:23;3.90;;;2.17;;
40931;SDS011;36257;46.052;12.540;2023-03-16T08:07:49;4.07;;;2.00;;
40931;SDS011;36257;46.052;12.540;2023-03-16T08:10:16;3.55;;;2.20;;
40931;SDS011;36257;46.052;12.540;2023-03-16T08:12:42;2.80;;;1.90;;
40931;SDS011;36257;46.052;12.540;2023-03-16T08:15:10;3.92;;;2.00;;
40931;SDS011;36257;46.052;12.540;2023-03-16T08:17:36;4.35;;;2.58;;
40931;SDS011;36257;46.052;12.540;2023-03-16T08:20:03;2.50;;;2.30;;
40931;SDS011;36257;46.052;12.540;2023-03-16T08:22:38;1.95;;;1.83;;
40931;SDS011;36257;46.052;12.540;2023-03-16T08:25:04;3.35;;;1.83;;
40931;SDS011;36257;46.052;12.540;2023-03-16T08:27:34;3.42;;;1.92;;
40931;SDS011;36257;46.052;12.540;2023-03-16T08:30:01;2.35;;;1.95;;
40931;SDS011;36257;46.052;12.540;2023-03-16T08:32:30;2.10;;;1.50;;
40931;SDS011;36257;46.052;12.540;2023-03-16T08:34:56;1.90;;;1.73;;
40931;SDS011;36257;46.052;12.540;2023-03-16T08:37:22;2.50;;;1.60;;
40931;SDS011;36257;46.052;12.540;2023-03-16T08:39:49;2.47;;;1.55;;
40931;SDS011;36257;46.052;12.540;2023-03-16T08:42:15;2.55;;;1.70;;
40931;SDS011;36257;46.052;12.540;2023-03-16T08:44:41;2.25;;;2.05;;
40931;SDS011;36257;46.052;12.540;2023-03-16T08:47:08;4.43;;;2.13;;
40931;SDS011;36257;46.052;12.540;2023-03-16T08:49:34;2.50;;;1.60;;
40931;SDS011;36257;46.052;12.540;2023-03-16T08:52:01;2.05;;;1.60;;
40931;SDS011;36257;46.052;12.540;2023-03-16T08:54:28;3.35;;;2.03;;
40931;SDS011;36257;46.052;12.540;2023-03-16T08:56:54;1.95;;;1.70;;
40931;SDS011;36257;46.052;12.540;2023-03-16T08:59:19;2.22;;;1.98;;
40931;SDS011;36257;46.052;12.540;2023-03-16T09:01:45;2.42;;;1.63;;
40931;SDS011;36257;46.052;12.540;2023-03-16T09:04:11;2.63;;;1.70;;
40931;SDS011;36257;46.052;12.540;2023-03-16T09:06:37;3.15;;;2.00;;
40931;SDS011;36257;46.052;12.540;2023-03-16T09:09:03;2.65;;;1.83;;
40931;SDS011;36257;46.052;12.540;2023-03-16T09:11:29;1.90;;;1.50;;
40931;SDS011;36257;46.052;12.540;2023-03-16T09:13:57;4.35;;;2.28;;
40931;SDS011;36257;46.052;12.540;2023-03-16T09:16:24;2.15;;;1.63;;
40931;SDS011;36257;46.052;12.540;2023-03-16T09:18:50;3.08;;;1.88;;
40931;SDS011;36257;46.052;12.540;2023-03-16T09:21:17;1.83;;;1.48;;
40931;SDS011;36257;46.052;12.540;2023-03-16T09:23:43;2.78;;;1.88;;
40931;SDS011;36257;46.052;12.540;2023-03-16T09:26:10;1.80;;;1.27;;
40931;SDS011;36257;46.052;12.540;2023-03-16T09:28:37;2.10;;;1.88;;
40931;SDS011;36257;46.052;12.540;2023-03-16T09:31:05;2.05;;;1.63;;
40931;SDS011;36257;46.052;12.540;2023-03-16T09:33:32;2.83;;;2.00;;
40931;SDS011;36257;46.052;12.540;2023-03-16T09:35:58;2.00;;;1.77;;
40931;SDS011;36257;46.052;12.540;2023-03-16T09:38:24;2.40;;;1.77;;
40931;SDS011;36257;46.052;12.540;2023-03-16T09:40:54;5.00;;;1.83;;
40931;SDS011;36257;46.052;12.540;2023-03-16T09:43:38;3.17;;;1.63;;
40931;SDS011;36257;46.052;12.540;2023-03-16T09:46:17;5.35;;;2.08;;
40931;SDS011;36257;46.052;12.540;2023-03-16T09:49:18;3.20;;;1.42;;
40931;SDS011;36257;46.052;12.540;2023-03-16T09:57:30;3.28;;;1.60;;
40931;SDS011;36257;46.052;12.540;2023-03-16T10:00:14;5.45;;;1.75;;
40931;SDS011;36257;46.052;12.540;2023-03-16T10:05:23;2.35;;;1.42;;
40931;SDS011;36257;46.052;12.540;2023-03-16T10:13:34;2.55;;;1.95;;
40931;SDS011;36257;46.052;12.540;2023-03-16T10:16:08;6.10;;;1.85;;
40931;SDS011;36257;46.052;12.540;2023-03-16T10:18:42;2.28;;;1.65;;
40931;SDS011;36257;46.052;12.540;2023-03-16T10:21:11;2.75;;;2.15;;
40931;SDS011;36257;46.052;12.540;2023-03-16T10:23:38;3.13;;;1.83;;
40931;SDS011;36257;46.052;12.540;2023-03-16T10:26:09;3.85;;;2.35;;
40931;SDS011;36257;46.052;12.540;2023-03-16T10:28:42;2.97;;;2.30;;
40931;SDS011;36257;46.052;12.540;2023-03-16T10:31:09;3.22;;;1.80;;
40931;SDS011;36257;46.052;12.540;2023-03-16T10:33:36;2.00;;;1.70;;
40931;SDS011;36257;46.052;12.540;2023-03-16T10:38:41;5.60;;;2.22;;
40931;SDS011;36257;46.052;12.540;2023-03-16T10:43:43;2.55;;;1.65;;
40931;SDS011;36257;46.052;12.540;2023-03-16T10:46:10;2.25;;;2.00;;
40931;SDS011;36257;46.052;12.540;2023-03-16T10:48:36;2.72;;;1.40;;
40931;SDS011;36257;46.052;12.540;2023-03-16T10:51:05;3.87;;;1.60;;
40931;SDS011;36257;46.052;12.540;2023-03-16T10:53:36;3.33;;;1.45;;
40931;SDS011;36257;46.052;12.540;2023-03-16T10:56:17;5.72;;;1.85;;
40931;SDS011;36257;46.052;12.540;2023-03-16T10:58:44;2.58;;;1.85;;
40931;SDS011;36257;46.052;12.540;2023-03-16T11:01:20;2.63;;;1.60;;
40931;SDS011;36257;46.052;12.540;2023-03-16T11:03:51;2.83;;;2.05;;
40931;SDS011;36257;46.052;12.540;2023-03-16T11:06:24;3.40;;;1.98;;
40931;SDS011;36257;46.052;12.540;2023-03-16T11:09:00;3.15;;;2.00;;
40931;SDS011;36257;46.052;12.540;2023-03-16T11:11:48;3.03;;;1.95;;
40931;SDS011;36257;46.052;12.540;2023-03-16T11:14:14;1.58;;;1.48;;
40931;SDS011;36257;46.052;12.540;2023-03-16T11:16:55;2.65;;;1.75;;
40931;SDS011;36257;46.052;12.540;2023-03-16T11:19:44;3.33;;;2.15;;
40931;SDS011;36257;46.052;12.540;2023-03-16T11:22:18;2.63;;;1.70;;
40931;SDS011;36257;46.052;12.540;2023-03-16T11:30:24;2.15;;;1.92;;
40931;SDS011;36257;46.052;12.540;2023-03-16T11:32:55;3.42;;;2.10;;
40931;SDS011;36257;46.052;12.540;2023-03-16T11:38:30;4.15;;;1.95;;
40931;SDS011;36257;46.052;12.540;2023-03-16T11:41:05;3.75;;;1.77;;
40931;SDS011;36257;46.052;12.540;2023-03-16T11:54:44;3.08;;;1.95;;
40931;SDS011;36257;46.052;12.540;2023-03-16T11:57:47;4.55;;;2.25;;
40931;SDS011;36257;46.052;12.540;2023-03-16T12:00:34;3.13;;;1.85;;
40931;SDS011;36257;46.052;12.540;2023-03-16T12:03:23;3.33;;;1.67;;
40931;SDS011;36257;46.052;12.540;2023-03-16T12:06:06;2.55;;;2.00;;
40931;SDS011;36257;46.052;12.540;2023-03-16T12:08:37;2.28;;;2.08;;
40931;SDS011;36257;46.052;12.540;2023-03-16T12:17:16;2.10;;;1.90;;
40931;SDS011;36257;46.052;12.540;2023-03-16T12:22:42;2.58;;;2.38;;
40931;SDS011;36257;46.052;12.540;2023-03-16T12:25:16;2.15;;;2.05;;
40931;SDS011;36257;46.052;12.540;2023-03-16T12:27:56;2.05;;;1.92;;
40931;SDS011;36257;46.052;12.540;2023-03-16T12:30:36;3.00;;;2.55;;
40931;SDS011;36257;46.052;12.540;2023-03-16T12:33:19;2.25;;;2.00;;
40931;SDS011;36257;46.052;12.540;2023-03-16T12:38:46;2.30;;;1.83;;
40931;SDS011;36257;46.052;12.540;2023-03-16T12:41:42;4.45;;;2.30;;
40931;SDS011;36257;46.052;12.540;2023-03-16T12:49:20;2.97;;;1.80;;
40931;SDS011;36257;46.052;12.540;2023-03-16T12:51:56;1.80;;;1.70;;
40931;SDS011;36257;46.052;12.540;2023-03-16T12:54:26;2.30;;;1.70;;
40931;SDS011;36257;46.052;12.540;2023-03-16T12:56:58;2.33;;;1.90;;
40931;SDS011;36257;46.052;12.540;2023-03-16T12:59:34;4.95;;;2.53;;
40931;SDS011;36257;46.052;12.540;2023-03-16T13:02:16;3.22;;;2.20;;
40931;SDS011;36257;46.052;12.540;2023-03-16T13:04:55;3.22;;;2.10;;
40931;SDS011;36257;46.052;12.540;2023-03-16T13:07:24;1.90;;;1.50;;
40931;SDS011;36257;46.052;12.540;2023-03-16T13:12:41;2.80;;;2.40;;
40931;SDS011;36257;46.052;12.540;2023-03-16T13:17:43;3.63;;;2.50;;
40931;SDS011;36257;46.052;12.540;2023-03-16T13:22:43;4.82;;;2.63;;
40931;SDS011;36257;46.052;12.540;2023-03-16T13:27:47;4.55;;;2.90;;
40931;SDS011;36257;46.052;12.540;2023-03-16T13:30:49;4.32;;;2.40;;
40931;SDS011;36257;46.052;12.540;2023-03-16T13:33:25;2.63;;;2.30;;
40931;SDS011;36257;46.052;12.540;2023-03-16T13:35:54;3.40;;;2.45;;
40931;SDS011;36257;46.052;12.540;2023-03-16T13:38:23;2.80;;;2.50;;
40931;SDS011;36257;46.052;12.540;2023-03-16T13:40:53;11.00;;;2.90;;
40931;SDS011;36257;46.052;12.540;2023-03-16T13:43:28;2.67;;;2.40;;
40931;SDS011;36257;46.052;12.540;2023-03-16T13:46:01;4.00;;;2.92;;
40931;SDS011;36257;46.052;12.540;2023-03-16T13:48:38;4.07;;;2.85;;
40931;SDS011;36257;46.052;12.540;2023-03-16T13:51:09;6.93;;;2.92;;
40931;SDS011;36257;46.052;12.540;2023-03-16T13:53:39;3.03;;;2.35;;
40931;SDS011;36257;46.052;12.540;2023-03-16T13:56:06;4.25;;;2.78;;
40931;SDS011;36257;46.052;12.540;2023-03-16T13:58:38;4.25;;;2.83;;
40931;SDS011;36257;46.052;12.540;2023-03-16T14:01:26;3.67;;;3.10;;
40931;SDS011;36257;46.052;12.540;2023-03-16T14:03:56;3.42;;;3.13;;
40931;SDS011;36257;46.052;12.540;2023-03-16T14:06:25;3.90;;;3.50;;
40931;SDS011;36257;46.052;12.540;2023-03-16T14:08:58;5.00;;;3.30;;
40931;SDS011;36257;46.052;12.540;2023-03-16T14:11:27;3.30;;;3.00;;
40931;SDS011;36257;46.052;12.540;2023-03-16T14:13:54;4.13;;;3.38;;
40931;SDS011;36257;46.052;12.540;2023-03-16T14:16:23;8.52;;;3.40;;
40931;SDS011;36257;46.052;12.540;2023-03-16T14:21:25;4.65;;;3.50;;
40931;SDS011;36257;46.052;12.540;2023-03-16T14:23:56;4.95;;;3.55;;
40931;SDS011;36257;46.052;12.540;2023-03-16T14:26:23;3.75;;;3.35;;
40931;SDS011;36257;46.052;12.540;2023-03-16T14:28:53;3.47;;;3.17;;
40931;SDS011;36257;46.052;12.540;2023-03-16T14:31:22;4.65;;;3.22;;
40931;SDS011;36257;46.052;12.540;2023-03-16T14:34:01;3.03;;;2.80;;
40931;SDS011;36257;46.052;12.540;2023-03-16T14:36:35;7.22;;;6.53;;
40931;SDS011;36257;46.052;12.540;2023-03-16T14:39:09;4.07;;;3.25;;
40931;SDS011;36257;46.052;12.540;2023-03-16T14:41:41;3.70;;;3.40;;
40931;SDS011;36257;46.052;12.540;2023-03-16T14:44:23;4.13;;;3.20;;
40931;SDS011;36257;46.052;12.540;2023-03-16T14:46:55;3.35;;;2.72;;
40931;SDS011;36257;46.052;12.540;2023-03-16T14:49:25;5.55;;;3.45;;
40931;SDS011;36257;46.052;12.540;2023-03-16T14:52:01;5.30;;;3.17;;
40931;SDS011;36257;46.052;12.540;2023-03-16T14:54:47;2.70;;;2.50;;
40931;SDS011;36257;46.052;12.540;2023-03-16T14:57:14;3.17;;;2.88;;
40931;SDS011;36257;46.052;12.540;2023-03-16T15:02:12;4.50;;;2.72;;
40931;SDS011;36257;46.052;12.540;2023-03-16T15:04:57;4.25;;;3.42;;
40931;SDS011;36257;46.052;12.540;2023-03-16T15:07:26;3.67;;;3.10;;
40931;SDS011;36257;46.052;12.540;2023-03-16T15:09:54;4.38;;;3.22;;
40931;SDS011;36257;46.052;12.540;2023-03-16T15:12:24;4.00;;;3.10;;
40931;SDS011;36257;46.052;12.540;2023-03-16T15:14:50;4.03;;;3.22;;
40931;SDS011;36257;46.052;12.540;2023-03-16T15:17:34;4.30;;;3.17;;
40931;SDS011;36257;46.052;12.540;2023-03-16T15:20:00;7.32;;;2.70;;
40931;SDS011;36257;46.052;12.540;2023-03-16T15:22:28;3.97;;;3.37;;
40931;SDS011;36257;46.052;12.540;2023-03-16T15:24:56;3.55;;;3.25;;
40931;SDS011;36257;46.052;12.540;2023-03-16T15:29:57;3.22;;;2.58;;
40931;SDS011;36257;46.052;12.540;2023-03-16T15:32:23;3.60;;;3.08;;
40931;SDS011;36257;46.052;12.540;2023-03-16T15:34:49;3.67;;;3.05;;
40931;SDS011;36257;46.052;12.540;2023-03-16T15:37:15;5.07;;;3.58;;
40931;SDS011;36257;46.052;12.540;2023-03-16T15:39:43;4.30;;;3.63;;
40931;SDS011;36257;46.052;12.540;2023-03-16T15:42:19;4.22;;;3.42;;
40931;SDS011;36257;46.052;12.540;2023-03-16T15:44:45;4.18;;;3.20;;
40931;SDS011;36257;46.052;12.540;2023-03-16T15:47:11;5.03;;;3.65;;
40931;SDS011;36257;46.052;12.540;2023-03-16T15:49:37;4.00;;;2.90;;
40931;SDS011;36257;46.052;12.540;2023-03-16T15:52:04;4.43;;;4.03;;
40931;SDS011;36257;46.052;12.540;2023-03-16T15:54:31;5.45;;;3.60;;
40931;SDS011;36257;46.052;12.540;2023-03-16T15:56:59;5.25;;;4.25;;
40931;SDS011;36257;46.052;12.540;2023-03-16T15:59:25;5.70;;;3.70;;
40931;SDS011;36257;46.052;12.540;2023-03-16T16:01:57;5.05;;;4.32;;
40931;SDS011;36257;46.052;12.540;2023-03-16T16:04:23;4.97;;;4.13;;
40931;SDS011;36257;46.052;12.540;2023-03-16T16:06:49;7.47;;;5.03;;
40931;SDS011;36257;46.052;12.540;2023-03-16T16:09:19;5.97;;;4.20;;
40931;SDS011;36257;46.052;12.540;2023-03-16T16:11:44;5.53;;;4.35;;
40931;SDS011;36257;46.052;12.540;2023-03-16T16:14:16;5.32;;;4.68;;
40931;SDS011;36257;46.052;12.540;2023-03-16T16:16:54;4.70;;;4.20;;
40931;SDS011;36257;46.052;12.540;2023-03-16T16:19:20;4.65;;;3.90;;